createdAt,value
2018-03-17T00:00:28.576Z,67.00
2018-03-17T00:02:54.516Z,66.80
2018-03-17T00:05:21.359Z,68.80
2018-03-17T00:07:47.296Z,69.50
2018-03-17T00:10:14.029Z,68.60
2018-03-17T00:12:39.977Z,68.50
2018-03-17T00:15:06.095Z,68.60
2018-03-17T00:17:32.041Z,68.20
2018-03-17T00:19:58.016Z,68.10
2018-03-17T00:22:24.124Z,68.20
2018-03-17T00:24:50.090Z,67.80
2018-03-17T00:27:16.091Z,67.80
2018-03-17T00:29:42.040Z,67.80
2018-03-17T00:32:08.044Z,67.70
2018-03-17T00:34:34.716Z,69.00
2018-03-17T00:37:00.795Z,68.90
2018-03-17T00:39:27.509Z,70.90
2018-03-17T00:41:53.517Z,70.90
2018-03-17T00:44:19.476Z,71.20
2018-03-17T00:46:46.192Z,72.90
2018-03-17T00:49:12.182Z,72.90
2018-03-17T00:51:38.132Z,72.30
2018-03-17T00:54:04.223Z,72.40
2018-03-17T00:56:30.168Z,72.20
2018-03-17T00:58:56.152Z,72.00
2018-03-17T01:01:22.111Z,71.60
2018-03-17T01:03:48.217Z,71.20
2018-03-17T01:06:14.160Z,71.40
2018-03-17T01:08:40.100Z,71.90
2018-03-17T01:11:06.137Z,71.20
2018-03-17T01:13:32.109Z,71.50
2018-03-17T01:15:58.243Z,71.90
2018-03-17T01:18:24.192Z,71.20
2018-03-17T01:20:50.304Z,70.50
2018-03-17T01:23:16.241Z,70.60
2018-03-17T01:25:42.220Z,70.60
2018-03-17T01:28:08.160Z,70.60
2018-03-17T01:30:34.142Z,70.40
2018-03-17T01:33:00.104Z,69.90
2018-03-17T01:35:26.208Z,69.90
2018-03-17T01:37:52.148Z,69.50
2018-03-17T01:40:18.097Z,69.10
2018-03-17T01:42:44.057Z,68.80
2018-03-17T01:45:10.009Z,68.90
2018-03-17T01:47:35.977Z,68.90
2018-03-17T01:50:01.915Z,69.50
2018-03-17T01:52:28.023Z,69.90
2018-03-17T01:54:53.976Z,70.10
2018-03-17T01:57:19.952Z,70.40
2018-03-17T01:59:45.918Z,71.10
2018-03-17T02:02:11.891Z,71.10
2018-03-17T02:04:37.872Z,71.20
2018-03-17T02:07:03.964Z,71.60
2018-03-17T02:09:29.902Z,71.70
2018-03-17T02:11:55.904Z,72.20
2018-03-17T02:14:21.975Z,73.90
2018-03-17T02:16:47.940Z,74.00
2018-03-17T02:19:13.924Z,74.40
2018-03-17T02:21:39.913Z,75.90
2018-03-17T02:24:06.584Z,77.00
2018-03-17T02:26:32.546Z,77.00
2018-03-17T02:28:58.631Z,78.10
2018-03-17T02:31:24.597Z,80.40
2018-03-17T02:33:50.576Z,80.90
2018-03-17T02:36:16.556Z,82.40
2018-03-17T02:38:42.540Z,84.10
2018-03-17T02:41:08.491Z,86.00
2018-03-17T02:43:35.348Z,88.70
2018-03-17T02:46:02.034Z,89.40
2018-03-17T02:48:28.021Z,89.40
2018-03-17T02:50:53.981Z,89.80
2018-03-17T02:53:20.091Z,90.10
2018-03-17T02:55:46.077Z,90.40
2018-03-17T02:58:12.791Z,90.80
2018-03-17T03:00:38.795Z,90.80
2018-03-17T03:03:04.785Z,90.90
2018-03-17T03:05:30.724Z,90.90
2018-03-17T03:07:56.717Z,91.10
2018-03-17T03:10:22.712Z,91.20
2018-03-17T03:12:48.795Z,91.10
2018-03-17T03:15:14.756Z,91.10
2018-03-17T03:17:40.740Z,91.20
2018-03-17T03:20:06.716Z,91.20
2018-03-17T03:22:33.400Z,91.40
2018-03-17T03:24:59.372Z,91.40
2018-03-17T03:27:26.051Z,91.80
2018-03-17T03:29:52.130Z,91.60
2018-03-17T03:32:18.065Z,91.90
2018-03-17T03:34:44.789Z,92.00
2018-03-17T03:37:10.720Z,92.00
2018-03-17T03:39:37.446Z,91.90
2018-03-17T03:42:03.393Z,91.90
2018-03-17T03:44:29.393Z,91.90
2018-03-17T03:46:55.499Z,91.90
2018-03-17T03:49:21.443Z,91.90
2018-03-17T03:51:47.472Z,91.90
2018-03-17T03:54:14.170Z,91.90
2018-03-17T03:56:40.153Z,91.90
2018-03-17T03:59:06.088Z,91.90
2018-03-17T04:01:32.201Z,92.10
2018-03-17T04:03:58.175Z,92.00
2018-03-17T04:06:24.189Z,92.10
2018-03-17T04:08:50.160Z,92.20
2018-03-17T04:11:16.861Z,92.20
2018-03-17T04:13:43.000Z,92.20
2018-03-17T04:16:08.992Z,92.30
2018-03-17T04:18:35.111Z,92.30
2018-03-17T04:21:01.072Z,92.40
2018-03-17T04:23:27.025Z,92.50
2018-03-17T04:25:53.006Z,92.50
2018-03-17T04:28:18.972Z,92.60
2018-03-17T04:30:44.952Z,92.50
2018-03-17T04:33:10.892Z,92.40
2018-03-17T04:35:37.724Z,92.00
2018-03-17T04:38:03.695Z,92.10
2018-03-17T04:40:29.673Z,92.00
2018-03-17T04:42:55.628Z,91.90
2018-03-17T04:45:21.617Z,91.80
2018-03-17T04:47:47.610Z,91.80
2018-03-17T04:50:13.566Z,91.80
2018-03-17T04:52:39.659Z,91.90
2018-03-17T04:55:05.596Z,91.90
2018-03-17T04:57:31.596Z,92.40
2018-03-17T04:59:57.590Z,92.00
2018-03-17T05:02:24.256Z,92.10
2018-03-17T05:04:50.229Z,92.10
2018-03-17T05:07:16.931Z,92.00
2018-03-17T05:09:43.017Z,92.00
2018-03-17T05:12:08.953Z,92.00
2018-03-17T05:14:35.036Z,91.90
2018-03-17T05:17:01.897Z,92.00
2018-03-17T05:19:27.851Z,92.00
2018-03-17T05:21:53.804Z,92.00
2018-03-17T05:24:19.828Z,92.20
2018-03-17T05:26:45.761Z,92.30
2018-03-17T05:29:11.720Z,92.40
2018-03-17T05:31:37.683Z,92.30
2018-03-17T05:34:03.617Z,92.30
2018-03-17T05:36:29.602Z,92.20
2018-03-17T05:38:55.552Z,92.10
2018-03-17T05:41:21.660Z,92.00
2018-03-17T05:43:47.616Z,92.00
2018-03-17T05:46:14.359Z,91.80
2018-03-17T05:48:41.062Z,91.80
2018-03-17T05:51:07.069Z,91.80
2018-03-17T05:53:33.001Z,91.80
2018-03-17T05:55:59.050Z,91.80
2018-03-17T05:58:24.976Z,91.80
2018-03-17T06:00:50.955Z,91.80
2018-03-17T06:03:16.936Z,91.80
2018-03-17T06:05:42.902Z,91.80
2018-03-17T06:08:08.858Z,91.80
2018-03-17T06:10:34.954Z,91.80
2018-03-17T06:13:00.920Z,91.80
2018-03-17T06:15:27.745Z,92.20
2018-03-17T06:17:53.734Z,91.90
2018-03-17T06:20:19.689Z,91.90
2018-03-17T06:22:45.676Z,91.80
2018-03-17T06:25:11.617Z,91.80
2018-03-17T06:27:37.616Z,91.90
2018-03-17T06:30:03.571Z,92.20
2018-03-17T06:32:29.528Z,91.60
2018-03-17T06:34:55.495Z,91.60
2018-03-17T06:37:21.449Z,91.40
2018-03-17T06:39:47.458Z,91.40
2018-03-17T06:42:13.387Z,91.50
2018-03-17T06:44:39.365Z,91.20
2018-03-17T06:47:05.321Z,91.10
2018-03-17T06:49:31.304Z,91.10
2018-03-17T06:51:57.258Z,91.20
2018-03-17T06:54:23.220Z,91.10
2018-03-17T06:56:49.956Z,91.00
2018-03-17T06:59:15.901Z,91.00
2018-03-17T07:01:41.984Z,90.90
2018-03-17T07:04:07.948Z,90.80
2018-03-17T07:06:33.927Z,90.90
2018-03-17T07:08:59.889Z,90.90
2018-03-17T07:11:26.607Z,91.00
2018-03-17T07:13:52.716Z,91.00
2018-03-17T07:16:18.656Z,91.40
2018-03-17T07:18:45.504Z,90.70
2018-03-17T07:21:12.216Z,90.80
2018-03-17T07:23:38.188Z,90.80
2018-03-17T07:26:04.133Z,90.70
2018-03-17T07:28:30.095Z,90.80
2018-03-17T07:30:56.071Z,91.00
2018-03-17T07:33:22.030Z,90.80
2018-03-17T07:35:48.037Z,90.80
2018-03-17T07:38:13.996Z,90.70
2018-03-17T07:40:40.746Z,90.70
2018-03-17T07:43:07.416Z,90.60
2018-03-17T07:45:33.530Z,90.60
2018-03-17T07:47:59.502Z,90.50
2018-03-17T07:50:25.443Z,90.50
2018-03-17T07:52:52.222Z,90.70
2018-03-17T07:55:18.192Z,90.70
2018-03-17T07:57:44.203Z,90.60
2018-03-17T08:00:10.165Z,90.50
2018-03-17T08:02:36.947Z,90.30
2018-03-17T08:05:02.900Z,90.30
2018-03-17T08:07:28.889Z,90.30
2018-03-17T08:09:54.821Z,90.20
2018-03-17T08:12:20.814Z,90.30
2018-03-17T08:14:46.920Z,90.20
2018-03-17T08:17:13.592Z,90.10
2018-03-17T08:19:39.672Z,90.10
2018-03-17T08:22:06.348Z,90.10
2018-03-17T08:24:32.324Z,90.10
2018-03-17T08:26:58.263Z,89.60
2018-03-17T08:29:24.254Z,89.60
2018-03-17T08:31:50.219Z,89.70
2018-03-17T08:34:16.331Z,89.60
2018-03-17T08:36:43.036Z,88.80
2018-03-17T08:39:09.055Z,88.80
2018-03-17T08:41:34.995Z,88.40
2018-03-17T08:44:01.704Z,87.90
2018-03-17T08:46:27.693Z,87.90
2018-03-17T08:48:53.641Z,87.90
2018-03-17T08:51:19.630Z,88.20
2018-03-17T08:53:45.572Z,88.00
2018-03-17T08:56:11.588Z,89.20
2018-03-17T08:58:37.532Z,89.00
2018-03-17T09:01:03.537Z,88.60
2018-03-17T09:03:29.532Z,88.30
2018-03-17T09:05:55.451Z,88.20
2018-03-17T09:08:22.159Z,87.90
2018-03-17T09:10:48.310Z,87.90
2018-03-17T09:13:14.360Z,87.90
2018-03-17T09:15:40.340Z,87.50
2018-03-17T09:18:06.367Z,87.90
2018-03-17T09:20:32.297Z,87.80
2018-03-17T09:22:58.373Z,88.20
2018-03-17T09:25:24.336Z,88.60
2018-03-17T09:27:50.436Z,87.40
2018-03-17T09:30:16.413Z,87.40
2018-03-17T09:32:42.396Z,87.30
2018-03-17T09:35:08.331Z,88.00
2018-03-17T09:37:34.304Z,88.00
2018-03-17T09:40:00.253Z,87.20
2018-03-17T09:42:26.356Z,87.20
2018-03-17T09:44:52.327Z,87.00
2018-03-17T09:47:19.033Z,87.00
2018-03-17T09:49:44.993Z,87.10
2018-03-17T09:52:11.709Z,86.80
2018-03-17T09:54:37.811Z,86.70
2018-03-17T09:57:03.758Z,86.80
2018-03-17T09:59:29.721Z,86.70
2018-03-17T10:01:55.711Z,86.40
2018-03-17T10:04:21.660Z,86.60
2018-03-17T10:06:47.644Z,86.50
2018-03-17T10:09:13.581Z,86.30
2018-03-17T10:11:39.689Z,86.30
2018-03-17T10:14:05.849Z,85.70
2018-03-17T10:16:31.860Z,86.10
2018-03-17T10:18:58.570Z,86.00
2018-03-17T10:21:24.504Z,86.00
2018-03-17T10:23:50.482Z,85.70
2018-03-17T10:26:16.452Z,86.20
2018-03-17T10:28:42.555Z,85.80
2018-03-17T10:31:08.708Z,86.50
2018-03-17T10:33:34.694Z,86.40
2018-03-17T10:36:00.643Z,86.10
2018-03-17T10:38:26.643Z,87.00
2018-03-17T10:40:52.592Z,86.60
2018-03-17T10:43:18.679Z,85.70
2018-03-17T10:45:45.378Z,85.60
2018-03-17T10:48:12.088Z,85.50
2018-03-17T10:50:38.090Z,85.50
2018-03-17T10:53:04.045Z,85.00
2018-03-17T10:55:30.763Z,83.80
2018-03-17T10:57:56.739Z,83.80
2018-03-17T11:00:22.718Z,84.30
2018-03-17T11:02:48.665Z,83.90
2018-03-17T11:05:14.771Z,83.60
2018-03-17T11:07:40.732Z,82.60
2018-03-17T11:10:06.721Z,82.30
2018-03-17T11:12:32.799Z,82.00
2018-03-17T11:14:58.937Z,82.20
2018-03-17T11:17:24.883Z,83.30
2018-03-17T11:19:50.894Z,82.60
2018-03-17T11:22:16.853Z,83.30
2018-03-17T11:24:43.713Z,83.20
2018-03-17T11:27:09.698Z,83.60
2018-03-17T11:29:35.655Z,83.20
2018-03-17T11:32:01.619Z,83.30
2018-03-17T11:34:27.568Z,83.00
2018-03-17T11:36:53.684Z,82.80
2018-03-17T11:39:19.615Z,82.40
2018-03-17T11:41:45.596Z,82.70
2018-03-17T11:44:11.552Z,82.00
2018-03-17T11:46:37.499Z,81.80
2018-03-17T11:49:04.241Z,82.40
2018-03-17T11:51:30.927Z,82.30
2018-03-17T11:53:57.016Z,82.30
2018-03-17T11:56:22.980Z,82.40
2018-03-17T11:58:48.972Z,82.50
2018-03-17T12:01:14.924Z,82.10
2018-03-17T12:03:40.904Z,82.90
2018-03-17T12:06:06.851Z,82.50
2018-03-17T12:08:32.789Z,82.40
2018-03-17T12:10:58.885Z,82.60
2018-03-17T12:13:25.003Z,82.30
2018-03-17T12:15:51.023Z,82.00
2018-03-17T12:18:17.033Z,82.00
2018-03-17T12:20:43.751Z,81.80
2018-03-17T12:23:09.753Z,81.80
2018-03-17T12:25:35.852Z,82.10
2018-03-17T12:28:01.826Z,81.90
2018-03-17T12:30:27.765Z,81.60
2018-03-17T12:32:54.549Z,81.10
2018-03-17T12:35:20.504Z,81.10
2018-03-17T12:37:46.456Z,81.40
2018-03-17T12:40:12.405Z,81.20
2018-03-17T12:42:38.406Z,81.80
2018-03-17T12:45:04.388Z,81.60
2018-03-17T12:47:30.399Z,81.30
2018-03-17T12:49:56.465Z,81.60
2018-03-17T12:52:23.189Z,81.50
2018-03-17T12:54:49.917Z,81.50
2018-03-17T12:57:15.847Z,81.50
2018-03-17T12:59:41.961Z,81.00
2018-03-17T13:02:07.913Z,81.10
2018-03-17T13:04:33.889Z,80.90
2018-03-17T13:06:59.842Z,80.70
2018-03-17T13:09:25.849Z,81.10
2018-03-17T13:11:51.785Z,80.80
2018-03-17T13:14:17.928Z,80.10
2018-03-17T13:16:44.821Z,80.80
2018-03-17T13:19:10.786Z,80.10
2018-03-17T13:21:37.588Z,80.50
2018-03-17T13:24:03.532Z,80.60
2018-03-17T13:26:29.511Z,80.50
2018-03-17T13:28:55.473Z,80.20
2018-03-17T13:31:21.496Z,80.30
2018-03-17T13:33:47.458Z,80.00
2018-03-17T13:36:13.454Z,80.10
2018-03-17T13:38:40.153Z,79.80
2018-03-17T13:41:06.125Z,79.70
2018-03-17T13:43:32.800Z,79.10
2018-03-17T13:45:58.753Z,79.10
2018-03-17T13:48:24.865Z,79.20
2018-03-17T13:50:50.905Z,79.30
2018-03-17T13:53:16.917Z,79.40
2018-03-17T13:55:42.861Z,78.80
2018-03-17T13:58:08.835Z,79.00
2018-03-17T14:00:34.820Z,78.90
2018-03-17T14:03:01.657Z,79.50
2018-03-17T14:05:28.345Z,79.90
2018-03-17T14:07:54.360Z,79.90
2018-03-17T14:10:20.375Z,79.90
2018-03-17T14:12:46.376Z,80.00
2018-03-17T14:15:13.244Z,79.80
2018-03-17T14:17:39.195Z,79.70
2018-03-17T14:20:05.287Z,79.50
2018-03-17T14:22:31.242Z,79.90
2018-03-17T14:24:57.205Z,79.80
2018-03-17T14:27:23.913Z,79.90
2018-03-17T14:29:49.913Z,79.90
2018-03-17T14:32:15.881Z,79.60
2018-03-17T14:34:41.900Z,79.50
2018-03-17T14:37:07.860Z,80.20
2018-03-17T14:39:33.881Z,79.90
2018-03-17T14:41:59.852Z,79.70
2018-03-17T14:44:25.843Z,80.00
2018-03-17T14:46:51.844Z,80.10
2018-03-17T14:49:17.790Z,80.00
2018-03-17T14:51:43.794Z,79.50
2018-03-17T14:54:09.740Z,79.80
2018-03-17T14:56:35.736Z,79.90
2018-03-17T14:59:01.776Z,79.80
2018-03-17T15:01:27.780Z,80.10
2018-03-17T15:03:53.741Z,80.00
2018-03-17T15:06:19.842Z,80.10
2018-03-17T15:08:45.800Z,80.10
2018-03-17T15:11:11.775Z,80.30
2018-03-17T15:13:37.797Z,81.00
2018-03-17T15:16:03.899Z,80.00
2018-03-17T15:18:30.614Z,79.60
2018-03-17T15:20:56.574Z,79.70
2018-03-17T15:23:23.411Z,79.60
2018-03-17T15:25:50.120Z,79.80
2018-03-17T15:28:16.072Z,79.70
2018-03-17T15:30:42.791Z,79.70
2018-03-17T15:33:08.756Z,79.70
2018-03-17T15:35:34.739Z,79.80
2018-03-17T15:38:00.681Z,79.80
2018-03-17T15:40:26.782Z,79.90
2018-03-17T15:42:52.728Z,80.00
2018-03-17T15:45:18.714Z,80.00
2018-03-17T15:47:44.657Z,80.00
2018-03-17T15:50:10.652Z,80.00
2018-03-17T15:52:36.633Z,79.50
2018-03-17T15:55:02.768Z,79.60
2018-03-17T15:57:28.759Z,79.50
2018-03-17T15:59:55.528Z,79.50
2018-03-17T16:02:22.204Z,79.60
2018-03-17T16:04:48.211Z,79.60
2018-03-17T16:07:14.173Z,79.80
2018-03-17T16:09:40.294Z,79.40
2018-03-17T16:12:06.235Z,79.00
2018-03-17T16:14:32.347Z,79.40
2018-03-17T16:16:59.188Z,78.50
2018-03-17T16:19:25.881Z,78.40
2018-03-17T16:21:51.848Z,78.30
2018-03-17T16:24:18.542Z,79.20
2018-03-17T16:26:44.572Z,78.80
2018-03-17T16:29:10.541Z,78.40
2018-03-17T16:31:36.566Z,78.00
2018-03-17T16:34:03.265Z,78.20
2018-03-17T16:36:29.249Z,78.20
2018-03-17T16:38:55.236Z,78.10
2018-03-17T16:41:21.332Z,78.10
2018-03-17T16:43:47.268Z,78.10
2018-03-17T16:46:13.219Z,78.20
2018-03-17T16:48:39.228Z,77.90
2018-03-17T16:51:05.183Z,77.50
2018-03-17T16:53:31.180Z,77.60
2018-03-17T16:55:57.893Z,77.50
2018-03-17T16:58:23.913Z,77.50
2018-03-17T17:00:49.877Z,77.20
2018-03-17T17:03:16.792Z,77.50
2018-03-17T17:05:42.752Z,77.60
2018-03-17T17:08:08.710Z,77.50
2018-03-17T17:10:34.705Z,77.00
2018-03-17T17:13:00.659Z,77.20
2018-03-17T17:15:26.966Z,77.50
2018-03-17T17:17:52.939Z,77.40
2018-03-17T17:20:18.940Z,77.80
2018-03-17T17:22:44.892Z,77.80
2018-03-17T17:25:10.838Z,77.30
2018-03-17T17:27:36.804Z,77.10
2018-03-17T17:30:02.776Z,77.10
2018-03-17T17:32:28.760Z,76.90
2018-03-17T17:34:54.721Z,77.10
2018-03-17T17:37:20.808Z,76.90
2018-03-17T17:39:46.757Z,76.80
2018-03-17T17:42:13.516Z,76.60
2018-03-17T17:44:39.468Z,76.70
2018-03-17T17:47:05.424Z,76.60
2018-03-17T17:49:31.441Z,76.70
2018-03-17T17:51:57.416Z,76.50
2018-03-17T17:54:23.458Z,76.70
2018-03-17T17:56:49.405Z,76.40
2018-03-17T17:59:15.371Z,76.40
2018-03-17T18:01:41.394Z,77.00
2018-03-17T18:04:07.335Z,77.00
2018-03-17T18:06:33.350Z,77.20
2018-03-17T18:08:59.316Z,77.10
2018-03-17T18:11:25.265Z,76.70
2018-03-17T18:13:52.236Z,76.40
2018-03-17T18:16:18.233Z,76.30
2018-03-17T18:18:44.959Z,76.90
2018-03-17T18:21:11.759Z,77.00
2018-03-17T18:23:37.708Z,76.90
2018-03-17T18:26:03.677Z,77.00
2018-03-17T18:28:30.447Z,76.60
2018-03-17T18:30:56.433Z,76.70
2018-03-17T18:33:22.437Z,76.80
2018-03-17T18:35:48.497Z,76.40
2018-03-17T18:38:14.455Z,76.60
2018-03-17T18:40:40.574Z,76.90
2018-03-17T18:43:06.527Z,77.10
2018-03-17T18:45:32.636Z,77.10
2018-03-17T18:47:58.603Z,78.10
2018-03-17T18:50:24.609Z,77.40
2018-03-17T18:52:51.310Z,77.30
2018-03-17T18:55:17.261Z,77.30
2018-03-17T18:57:43.996Z,77.60
2018-03-17T19:00:10.706Z,77.60
2018-03-17T19:02:36.809Z,77.60
2018-03-17T19:05:02.788Z,77.40
2018-03-17T19:07:28.728Z,77.40
2018-03-17T19:09:54.668Z,77.20
2018-03-17T19:12:20.666Z,77.30
2018-03-17T19:14:46.789Z,77.60
2018-03-17T19:17:13.508Z,77.00
2018-03-17T19:19:39.503Z,77.00
2018-03-17T19:22:05.454Z,76.90
2018-03-17T19:24:31.451Z,77.00
2018-03-17T19:26:57.424Z,76.90
2018-03-17T19:29:23.520Z,76.80
2018-03-17T19:31:49.487Z,77.20
2018-03-17T19:34:15.509Z,77.20
2018-03-17T19:36:41.464Z,77.10
2018-03-17T19:39:07.405Z,76.90
2018-03-17T19:41:33.386Z,77.20
2018-03-17T19:43:59.480Z,77.40
2018-03-17T19:46:26.201Z,77.40
2018-03-17T19:48:52.157Z,77.40
2018-03-17T19:51:18.181Z,77.50
2018-03-17T19:53:44.131Z,77.50
2018-03-17T19:56:10.137Z,77.60
2018-03-17T19:58:36.084Z,77.90
2018-03-17T20:01:02.029Z,77.90
2018-03-17T20:03:28.117Z,77.90
2018-03-17T20:05:54.796Z,77.70
2018-03-17T20:08:20.786Z,77.80
2018-03-17T20:10:46.759Z,78.20
2018-03-17T20:13:13.579Z,78.20
2018-03-17T20:15:39.615Z,78.10
2018-03-17T20:18:06.342Z,78.60
2018-03-17T20:20:32.477Z,77.90
2018-03-17T20:22:58.443Z,77.50
2018-03-17T20:25:24.450Z,77.50
2018-03-17T20:27:50.444Z,77.40
2018-03-17T20:30:16.409Z,77.60
2018-03-17T20:32:42.523Z,77.50
2018-03-17T20:35:08.491Z,77.90
2018-03-17T20:37:34.483Z,78.00
2018-03-17T20:40:00.432Z,79.00
2018-03-17T20:42:26.564Z,78.30
2018-03-17T20:44:52.516Z,78.40
2018-03-17T20:47:19.286Z,78.50
2018-03-17T20:49:45.245Z,78.50
2018-03-17T20:52:11.180Z,79.10
2018-03-17T20:54:37.205Z,78.70
2018-03-17T20:57:03.203Z,78.90
2018-03-17T20:59:29.178Z,79.50
2018-03-17T21:01:55.861Z,79.20
2018-03-17T21:04:21.790Z,79.20
2018-03-17T21:06:47.915Z,80.00
2018-03-17T21:09:13.869Z,80.40
2018-03-17T21:11:40.602Z,81.80
2018-03-17T21:14:06.736Z,81.70
2018-03-17T21:16:32.668Z,82.10
2018-03-17T21:18:59.378Z,83.70
2018-03-17T21:21:25.502Z,83.70
2018-03-17T21:23:51.468Z,84.40
2018-03-17T21:26:17.478Z,84.50
2018-03-17T21:28:44.166Z,85.70
2018-03-17T21:31:10.119Z,85.70
2018-03-17T21:33:36.225Z,85.40
2018-03-17T21:36:02.189Z,85.90
2018-03-17T21:38:28.912Z,85.50
2018-03-17T21:40:54.933Z,85.50
2018-03-17T21:43:20.874Z,85.10
2018-03-17T21:45:47.585Z,85.60
2018-03-17T21:48:13.697Z,85.60
2018-03-17T21:50:39.656Z,86.10
2018-03-17T21:53:06.466Z,86.50
2018-03-17T21:55:32.421Z,86.50
2018-03-17T21:57:59.152Z,87.50
2018-03-17T22:00:25.879Z,87.90
2018-03-17T22:02:51.917Z,87.80
2018-03-17T22:05:18.648Z,88.00
2018-03-17T22:07:44.781Z,87.90
2018-03-17T22:10:10.717Z,88.00
2018-03-17T22:12:37.445Z,88.30
2018-03-17T22:15:04.274Z,88.60
2018-03-17T22:17:30.247Z,88.60
2018-03-17T22:19:56.233Z,88.80
2018-03-17T22:22:22.995Z,89.10
2018-03-17T22:24:49.096Z,89.20
2018-03-17T22:27:15.832Z,90.00
2018-03-17T22:29:42.512Z,89.20
2018-03-17T22:32:08.480Z,89.10
2018-03-17T22:34:34.457Z,89.50
2018-03-17T22:37:00.408Z,89.60
2018-03-17T22:39:26.425Z,89.40
2018-03-17T22:41:52.383Z,88.80
2018-03-17T22:44:19.098Z,88.50
2018-03-17T22:46:45.119Z,88.50
2018-03-17T22:49:11.062Z,88.60
2018-03-17T22:51:37.050Z,88.90
2018-03-17T22:54:03.018Z,88.50
2018-03-17T22:56:29.847Z,87.90
2018-03-17T22:58:55.792Z,87.80
2018-03-17T23:01:22.519Z,87.90
2018-03-17T23:03:49.218Z,87.50
2018-03-17T23:06:15.216Z,87.40
2018-03-17T23:08:41.169Z,87.90
2018-03-17T23:11:07.105Z,88.20
2018-03-17T23:13:33.208Z,88.20
2018-03-17T23:15:59.179Z,88.10
2018-03-17T23:18:25.167Z,88.50
2018-03-17T23:20:51.114Z,88.80
2018-03-17T23:23:17.820Z,89.50
2018-03-17T23:25:43.788Z,89.50
2018-03-17T23:28:10.657Z,90.10
2018-03-17T23:30:36.602Z,90.10
2018-03-17T23:33:02.546Z,90.20
2018-03-17T23:35:28.514Z,90.30
2018-03-17T23:37:54.444Z,90.20
2018-03-17T23:40:20.413Z,90.10
2018-03-17T23:42:46.351Z,90.30
2018-03-17T23:45:13.176Z,90.10
2018-03-17T23:47:39.128Z,90.10
2018-03-17T23:50:05.863Z,90.30
2018-03-17T23:52:32.552Z,90.30
2018-03-17T23:54:58.503Z,90.30
2018-03-17T23:57:24.471Z,90.30
2018-03-17T23:59:50.448Z,90.40
